Time;durP1;ratioP1;P1;durP2;ratioP2;P2;SDS_P1;SDS_P2;PMS_P1;PMS_P2;Temp;Humidity;BMP_temperature;BMP_pressure;BME280_temperature;BME280_humidity;BME280_pressure;Samples;Min_cycle;Max_cycle;Signal;HPM_P1;HPM_P2
2024/01/06 00:01:06;;;;;;;11.98;9.23;;;6.30;99.90;;;;;;4996947;28;20383;-67
2024/01/06 00:03:33;;;;;;;13.63;9.32;;;6.30;99.90;;;;;;4996526;28;20038;-67
2024/01/06 00:06:00;;;;;;;11.80;8.55;;;6.30;99.90;;;;;;5015736;28;20045;-67
2024/01/06 00:08:27;;;;;;;12.48;8.82;;;6.30;99.90;;;;;;5032884;28;20045;-66
2024/01/06 00:10:54;;;;;;;15.35;8.45;;;6.20;99.90;;;;;;5031914;28;20033;-66
2024/01/06 00:13:21;;;;;;;11.85;8.50;;;6.30;99.90;;;;;;5031547;28;20053;-66
2024/01/06 00:15:48;;;;;;;12.50;8.18;;;6.30;99.90;;;;;;5032815;28;20451;-67
2024/01/06 00:18:15;;;;;;;13.35;8.23;;;6.30;99.90;;;;;;5025918;28;20132;-67
2024/01/06 00:20:42;;;;;;;11.43;7.57;;;6.30;99.90;;;;;;5033130;28;20049;-67
2024/01/06 00:23:09;;;;;;;12.60;7.35;;;6.30;99.90;;;;;;5032632;28;20037;-67
2024/01/06 00:25:35;;;;;;;9.63;7.00;;;6.30;99.90;;;;;;5032776;28;20091;-66
2024/01/06 00:28:02;;;;;;;11.30;7.03;;;6.30;99.90;;;;;;5032887;28;20041;-66
2024/01/06 00:30:29;;;;;;;9.27;6.88;;;6.30;99.90;;;;;;5032621;28;20041;-66
2024/01/06 00:32:56;;;;;;;11.20;7.47;;;6.20;99.90;;;;;;5032688;28;20075;-66
2024/01/06 00:35:23;;;;;;;12.73;7.43;;;6.20;99.90;;;;;;5032810;28;20390;-66
2024/01/06 00:37:49;;;;;;;12.98;7.55;;;6.20;99.90;;;;;;5032514;28;20042;-65
2024/01/06 00:40:18;;;;;;;12.70;7.13;;;6.20;99.90;;;;;;5032850;28;20212;-66
2024/01/06 00:42:45;;;;;;;11.40;6.88;;;6.30;99.90;;;;;;5032772;28;20096;-60
2024/01/06 00:45:12;;;;;;;11.80;7.00;;;6.30;99.90;;;;;;5032461;28;20451;-60
2024/01/06 00:47:39;;;;;;;11.63;6.32;;;6.30;99.90;;;;;;5032606;28;20037;-60
2024/01/06 00:50:06;;;;;;;8.77;6.07;;;6.30;99.90;;;;;;5032374;28;20037;-61
2024/01/06 00:52:32;;;;;;;9.00;6.53;;;6.30;99.90;;;;;;5031916;28;20046;-61
2024/01/06 00:54:59;;;;;;;8.48;6.68;;;6.40;99.90;;;;;;5032304;28;20052;-61
2024/01/06 00:57:26;;;;;;;10.18;6.40;;;6.40;99.90;;;;;;5032512;28;20553;-61
2024/01/06 00:59:53;;;;;;;11.90;6.72;;;6.40;99.90;;;;;;5032620;28;20068;-60
2024/01/06 01:02:19;;;;;;;9.68;6.10;;;6.40;99.90;;;;;;5026063;28;20509;-61
2024/01/06 01:04:46;;;;;;;12.88;6.60;;;6.40;99.90;;;;;;5013077;28;20069;-61
2024/01/06 01:07:13;;;;;;;10.70;6.43;;;6.50;99.90;;;;;;5022839;28;20156;-61
2024/01/06 01:09:40;;;;;;;8.85;6.43;;;6.40;99.90;;;;;;5026049;28;20059;-61
2024/01/06 01:12:07;;;;;;;10.98;6.60;;;6.40;99.90;;;;;;5013275;28;20447;-61
2024/01/06 01:14:34;;;;;;;9.95;6.22;;;6.40;99.90;;;;;;5019807;28;20034;-61
2024/01/06 01:17:00;;;;;;;8.90;7.10;;;6.50;99.90;;;;;;5013106;28;20045;-61
2024/01/06 01:19:27;;;;;;;10.00;6.80;;;6.50;99.90;;;;;;5027259;28;20410;-61
2024/01/06 01:21:55;;;;;;;9.85;6.50;;;6.50;99.90;;;;;;5032365;28;20450;-62
2024/01/06 01:24:22;;;;;;;10.43;6.57;;;6.50;99.90;;;;;;5032276;28;20057;-60
2024/01/06 01:26:49;;;;;;;9.30;6.43;;;6.50;99.90;;;;;;5032261;28;20068;-62
2024/01/06 01:29:16;;;;;;;10.00;6.70;;;6.50;99.90;;;;;;5031895;28;20033;-60
2024/01/06 01:31:42;;;;;;;9.70;6.72;;;6.50;99.90;;;;;;5031739;28;20058;-60
2024/01/06 01:34:10;;;;;;;9.27;6.88;;;6.50;99.90;;;;;;5031764;28;20037;-60
2024/01/06 01:36:37;;;;;;;11.38;7.03;;;6.50;99.90;;;;;;5030759;28;20041;-60
2024/01/06 01:39:04;;;;;;;12.13;7.85;;;6.50;99.90;;;;;;5032062;28;20048;-60
2024/01/06 01:41:30;;;;;;;17.17;8.40;;;6.50;99.90;;;;;;5030893;28;20049;-60
2024/01/06 01:44:00;;;;;;;13.95;8.90;;;6.50;99.90;;;;;;5032065;28;20056;-60
2024/01/06 01:46:27;;;;;;;14.48;8.68;;;6.40;99.90;;;;;;5031893;28;20053;-62
2024/01/06 01:48:55;;;;;;;13.05;8.05;;;6.40;99.90;;;;;;5032275;28;20043;-61
2024/01/06 01:51:22;;;;;;;13.88;8.05;;;6.50;99.90;;;;;;5031940;28;20490;-62
2024/01/06 01:53:49;;;;;;;15.23;7.53;;;6.50;99.90;;;;;;5031715;28;20038;-62
2024/01/06 01:56:16;;;;;;;13.65;7.57;;;6.50;99.90;;;;;;5031798;28;20033;-62
2024/01/06 01:58:43;;;;;;;11.73;7.75;;;6.40;99.90;;;;;;5030613;28;20479;-62
2024/01/06 02:01:09;;;;;;;12.65;8.02;;;6.40;99.90;;;;;;5030639;28;20095;-63
2024/01/06 02:03:37;;;;;;;9.80;6.57;;;6.40;99.90;;;;;;5030812;28;20050;-62
2024/01/06 02:06:04;;;;;;;9.40;6.72;;;6.40;99.90;;;;;;5035467;28;20510;-62
2024/01/06 02:08:31;;;;;;;9.02;6.35;;;6.40;99.90;;;;;;5014804;28;20092;-62
2024/01/06 02:10:57;;;;;;;11.25;6.15;;;6.30;99.90;;;;;;5016337;28;20037;-62
2024/01/06 02:13:24;;;;;;;9.05;5.78;;;6.30;99.90;;;;;;5014971;28;20372;-62
2024/01/06 02:15:52;;;;;;;8.07;5.95;;;6.30;99.90;;;;;;5016369;28;20388;-62
2024/01/06 02:18:20;;;;;;;9.68;6.05;;;6.30;99.90;;;;;;5018555;28;20064;-62
2024/01/06 02:20:47;;;;;;;8.73;5.97;;;6.30;99.90;;;;;;5033620;28;20529;-62
2024/01/06 02:23:13;;;;;;;8.98;5.68;;;6.30;99.90;;;;;;5033407;28;20045;-62
2024/01/06 02:25:40;;;;;;;10.00;5.72;;;6.30;99.90;;;;;;5034886;28;20045;-62
2024/01/06 02:28:07;;;;;;;10.18;6.28;;;6.20;99.90;;;;;;5034883;28;20053;-62
2024/01/06 02:30:34;;;;;;;10.68;6.88;;;6.20;99.90;;;;;;5034860;28;20427;-62
2024/01/06 02:33:00;;;;;;;9.90;6.03;;;6.20;99.90;;;;;;5034877;28;20044;-61
2024/01/06 02:35:27;;;;;;;10.48;6.38;;;6.20;99.90;;;;;;5034902;28;20033;-62
2024/01/06 02:37:54;;;;;;;9.63;6.75;;;6.20;99.90;;;;;;5034638;28;20129;-62
2024/01/06 02:40:21;;;;;;;11.18;6.60;;;6.30;99.90;;;;;;5034705;28;20084;-62
2024/01/06 02:42:48;;;;;;;10.63;6.35;;;6.30;99.90;;;;;;5034641;28;20410;-62
2024/01/06 02:45:14;;;;;;;10.70;6.15;;;6.30;99.90;;;;;;5035007;28;20065;-62
2024/01/06 02:47:41;;;;;;;8.05;6.35;;;6.30;99.90;;;;;;5034523;28;20491;-62
2024/01/06 02:50:08;;;;;;;9.10;6.47;;;6.30;99.90;;;;;;5034460;28;20045;-62
2024/01/06 02:52:35;;;;;;;9.90;5.75;;;6.30;99.90;;;;;;5028301;28;20390;-62
2024/01/06 02:55:02;;;;;;;7.82;5.70;;;6.30;99.90;;;;;;5032889;28;20124;-61
2024/01/06 02:57:29;;;;;;;10.70;6.20;;;6.30;99.90;;;;;;5034512;28;20112;-62
2024/01/06 02:59:55;;;;;;;7.90;5.38;;;6.30;99.90;;;;;;5033040;28;20037;-62
2024/01/06 03:02:22;;;;;;;10.25;6.05;;;6.30;99.90;;;;;;5034327;28;20041;-62
2024/01/06 03:04:49;;;;;;;9.18;6.25;;;6.30;99.90;;;;;;5034280;28;20060;-62
2024/01/06 03:07:16;;;;;;;9.63;5.57;;;6.30;99.90;;;;;;5030464;28;20049;-62
2024/01/06 03:09:42;;;;;;;8.82;6.22;;;6.40;99.90;;;;;;5034083;28;20067;-62
2024/01/06 03:12:10;;;;;;;10.55;6.03;;;6.30;99.90;;;;;;5034417;28;20045;-61
2024/01/06 03:14:37;;;;;;;12.80;6.55;;;6.30;99.90;;;;;;5033046;28;20061;-62
2024/01/06 03:17:03;;;;;;;12.00;6.38;;;6.30;99.90;;;;;;5015900;28;20132;-62
2024/01/06 03:19:30;;;;;;;9.00;6.35;;;6.30;99.90;;;;;;5014875;28;20041;-62
2024/01/06 03:21:57;;;;;;;8.15;6.18;;;6.30;99.90;;;;;;5013675;28;20057;-62
2024/01/06 03:24:24;;;;;;;8.40;5.78;;;6.30;99.90;;;;;;5016396;28;20042;-62
2024/01/06 03:26:51;;;;;;;8.70;6.00;;;6.30;99.90;;;;;;5013647;28;20060;-60
2024/01/06 03:29:18;;;;;;;10.50;5.88;;;6.30;99.90;;;;;;5013501;28;20049;-62
2024/01/06 03:31:44;;;;;;;9.45;5.35;;;6.30;99.90;;;;;;5014661;28;20049;-62
2024/01/06 03:34:11;;;;;;;11.88;5.32;;;6.20;99.90;;;;;;5029133;28;20041;-62
2024/01/06 03:36:38;;;;;;;8.85;5.22;;;6.20;99.90;;;;;;5033730;28;20042;-62
2024/01/06 03:39:05;;;;;;;16.40;5.60;;;6.20;99.90;;;;;;5033570;28;20049;-62
2024/01/06 03:41:32;;;;;;;8.10;5.13;;;6.30;99.90;;;;;;5028630;28;20550;-62
2024/01/06 03:43:59;;;;;;;8.55;4.95;;;6.20;99.90;;;;;;5033630;28;20042;-62
2024/01/06 03:46:25;;;;;;;10.57;5.15;;;6.20;99.90;;;;;;5033655;28;20132;-62
2024/01/06 03:48:52;;;;;;;8.13;5.07;;;6.20;99.90;;;;;;5032044;28;20041;-62
2024/01/06 03:51:19;;;;;;;7.20;4.38;;;6.30;99.90;;;;;;5032231;28;20080;-62
2024/01/06 03:53:46;;;;;;;9.18;4.15;;;6.20;99.90;;;;;;5032052;28;20836;-62
2024/01/06 03:56:13;;;;;;;6.85;4.28;;;6.20;99.90;;;;;;5033537;28;20076;-65
2024/01/06 03:58:40;;;;;;;8.43;4.30;;;6.20;99.90;;;;;;5032239;28;20107;-66
2024/01/06 04:01:06;;;;;;;7.70;4.10;;;6.20;99.90;;;;;;5031938;28;20054;-66
2024/01/06 04:03:33;;;;;;;9.18;4.32;;;6.10;99.90;;;;;;5033176;28;20380;-65
2024/01/06 04:06:00;;;;;;;8.85;4.43;;;6.10;99.90;;;;;;5032947;28;20532;-65
2024/01/06 04:08:27;;;;;;;6.05;3.88;;;6.10;99.90;;;;;;5022179;28;20048;-66
2024/01/06 04:10:54;;;;;;;5.72;3.97;;;6.10;99.90;;;;;;5014353;28;20048;-66
2024/01/06 04:13:21;;;;;;;9.15;4.25;;;6.10;99.90;;;;;;5014111;28;20049;-61
2024/01/06 04:15:47;;;;;;;6.45;4.13;;;6.10;99.90;;;;;;5013847;28;20506;-61
2024/01/06 04:18:14;;;;;;;8.65;4.13;;;6.10;99.90;;;;;;5013639;28;20050;-60
2024/01/06 04:20:41;;;;;;;8.73;4.72;;;6.10;99.90;;;;;;5022679;28;20069;-58
2024/01/06 04:23:08;;;;;;;6.68;3.50;;;6.00;99.90;;;;;;5031615;28;20041;-64
2024/01/06 04:25:35;;;;;;;10.45;4.00;;;6.10;99.90;;;;;;5029052;28;20038;-64
2024/01/06 04:28:01;;;;;;;8.35;3.97;;;6.10;99.90;;;;;;5031716;28;20368;-65
2024/01/06 04:30:28;;;;;;;5.35;3.65;;;6.10;99.90;;;;;;5032589;28;20040;-64
2024/01/06 04:32:57;;;;;;;7.32;3.72;;;6.10;99.90;;;;;;5032753;28;20068;-64
2024/01/06 04:35:24;;;;;;;8.00;3.70;;;6.10;99.90;;;;;;5032480;28;20478;-64
2024/01/06 04:37:51;;;;;;;5.90;3.35;;;6.10;99.90;;;;;;5031346;28;20049;-64
2024/01/06 04:40:17;;;;;;;6.78;4.30;;;6.10;99.90;;;;;;5032528;28;20049;-66
2024/01/06 04:42:44;;;;;;;6.55;3.78;;;6.10;99.90;;;;;;5032715;28;20051;-65
2024/01/06 04:45:11;;;;;;;5.20;3.67;;;6.00;99.90;;;;;;5030772;28;20041;-64
2024/01/06 04:47:38;;;;;;;8.57;3.85;;;6.00;99.90;;;;;;5027707;28;20121;-65
2024/01/06 04:50:04;;;;;;;5.20;3.40;;;6.00;99.90;;;;;;5030994;28;20167;-65
2024/01/06 04:52:32;;;;;;;7.00;3.70;;;6.00;99.90;;;;;;5032559;28;20360;-66
2024/01/06 04:54:59;;;;;;;6.00;3.65;;;6.00;99.90;;;;;;5032763;28;20489;-65
2024/01/06 04:57:25;;;;;;;7.47;3.80;;;6.00;99.90;;;;;;5032279;28;20042;-66
2024/01/06 04:59:52;;;;;;;6.82;3.83;;;6.00;99.90;;;;;;5032258;28;20045;-65
2024/01/06 05:02:19;;;;;;;7.72;3.47;;;6.00;99.90;;;;;;5032397;28;20050;-66
2024/01/06 05:04:46;;;;;;;8.50;4.05;;;6.00;99.90;;;;;;5032128;28;20041;-68
2024/01/06 05:07:12;;;;;;;6.88;4.10;;;5.90;99.90;;;;;;5032266;28;20072;-63
2024/01/06 05:09:39;;;;;;;7.00;3.95;;;5.90;99.90;;;;;;5031188;28;20048;-61
2024/01/06 05:12:06;;;;;;;5.38;3.65;;;5.90;99.90;;;;;;5013149;28;20042;-65
2024/01/06 05:14:33;;;;;;;6.68;3.63;;;5.90;99.90;;;;;;5026969;28;20107;-65
2024/01/06 05:17:00;;;;;;;7.38;3.55;;;5.90;99.90;;;;;;5032023;28;20057;-61
2024/01/06 05:19:26;;;;;;;4.45;3.60;;;5.90;99.90;;;;;;5014223;28;20053;-60
2024/01/06 05:21:54;;;;;;;7.40;3.78;;;5.90;99.90;;;;;;5013370;28;20517;-61
2024/01/06 05:24:21;;;;;;;9.55;3.33;;;6.00;99.90;;;;;;5013117;28;20042;-61
2024/01/06 05:26:47;;;;;;;7.18;3.60;;;5.90;99.90;;;;;;5013244;28;20463;-61
2024/01/06 05:29:14;;;;;;;5.50;4.15;;;5.90;99.90;;;;;;5013447;28;20034;-61
2024/01/06 05:31:41;;;;;;;8.32;2.75;;;5.90;99.90;;;;;;5031898;28;20124;-61
2024/01/06 05:34:08;;;;;;;5.70;2.60;;;5.90;99.90;;;;;;5015022;28;20498;-66
2024/01/06 05:36:35;;;;;;;6.00;3.03;;;5.80;99.90;;;;;;5013009;28;20127;-67
2024/01/06 05:39:02;;;;;;;4.43;2.42;;;5.80;99.90;;;;;;5014091;28;20049;-66
2024/01/06 05:41:29;;;;;;;6.18;3.03;;;5.80;99.90;;;;;;5023695;28;20076;-66
2024/01/06 05:43:56;;;;;;;6.63;3.00;;;5.80;99.90;;;;;;5035673;28;20092;-66
2024/01/06 05:46:23;;;;;;;4.75;2.83;;;5.80;99.90;;;;;;5032455;28;20478;-66
2024/01/06 05:48:49;;;;;;;7.60;2.75;;;5.90;99.90;;;;;;5016689;28;20100;-61
2024/01/06 05:51:17;;;;;;;5.18;2.58;;;5.90;99.90;;;;;;5016453;28;20136;-61
2024/01/06 05:53:44;;;;;;;4.68;2.70;;;5.90;99.90;;;;;;5016695;28;20042;-61
2024/01/06 05:56:11;;;;;;;8.18;2.80;;;5.80;99.90;;;;;;5029821;28;20124;-62
2024/01/06 05:58:38;;;;;;;6.30;2.70;;;5.90;99.90;;;;;;5023031;28;20375;-62
2024/01/06 06:01:05;;;;;;;5.75;3.00;;;5.80;99.90;;;;;;5035831;28;20051;-61
2024/01/06 06:03:32;;;;;;;4.35;2.58;;;5.80;99.90;;;;;;5035544;28;20049;-61
2024/01/06 06:05:59;;;;;;;5.45;2.45;;;5.90;99.90;;;;;;5029227;28;20091;-61
2024/01/06 06:08:25;;;;;;;8.13;3.45;;;5.80;99.90;;;;;;5016391;28;20066;-61
2024/01/06 06:11:01;;;;;;;8.75;2.78;;;5.80;99.90;;;;;;5035182;28;20379;-61
2024/01/06 06:13:29;;;;;;;5.28;3.03;;;5.80;99.90;;;;;;5034127;28;20068;-66
2024/01/06 06:15:55;;;;;;;8.57;3.05;;;5.80;99.90;;;;;;5035459;28;20038;-66
2024/01/06 06:18:22;;;;;;;5.05;1.95;;;5.80;99.90;;;;;;5034125;28;20049;-66
2024/01/06 06:20:49;;;;;;;7.05;2.90;;;5.80;99.90;;;;;;5035963;28;20041;-66
2024/01/06 06:23:16;;;;;;;7.28;3.35;;;5.70;99.90;;;;;;5035900;28;20533;-66
2024/01/06 06:25:43;;;;;;;7.22;3.22;;;5.80;99.90;;;;;;5035705;28;20405;-66
2024/01/06 06:28:10;;;;;;;7.65;3.63;;;5.70;99.90;;;;;;5035453;28;20046;-66
2024/01/06 06:30:37;;;;;;;6.80;3.05;;;5.70;99.90;;;;;;5022729;28;20045;-66
2024/01/06 06:33:03;;;;;;;10.55;2.95;;;5.70;99.90;;;;;;5016195;28;20042;-65
2024/01/06 06:35:30;;;;;;;5.78;2.47;;;5.70;99.90;;;;;;5015899;28;20038;-60
2024/01/06 06:37:57;;;;;;;7.82;2.60;;;5.70;99.90;;;;;;5015663;28;20042;-60
2024/01/06 06:40:24;;;;;;;8.52;2.83;;;5.70;99.90;;;;;;5034753;28;20052;-65
2024/01/06 06:42:51;;;;;;;6.55;2.33;;;5.70;99.90;;;;;;5035041;28;20509;-62
2024/01/06 06:45:22;;;;;;;6.88;2.45;;;5.70;99.90;;;;;;5022386;28;20049;-62
2024/01/06 06:47:49;;;;;;;4.80;2.55;;;5.70;99.90;;;;;;5034268;28;20052;-61
2024/01/06 06:50:16;;;;;;;7.45;2.17;;;5.70;99.90;;;;;;5033977;28;20049;-62
2024/01/06 06:52:43;;;;;;;5.20;2.10;;;5.70;99.90;;;;;;5034312;28;20042;-66
2024/01/06 06:55:10;;;;;;;4.97;2.28;;;5.70;99.90;;;;;;5034562;28;20041;-61
2024/01/06 06:57:37;;;;;;;5.07;1.92;;;5.70;99.90;;;;;;5034500;28;20056;-66
2024/01/06 07:00:03;;;;;;;7.13;1.90;;;5.70;99.90;;;;;;5033531;28;20482;-66
2024/01/06 07:02:30;;;;;;;2.97;1.80;;;5.70;99.90;;;;;;5028643;28;20033;-62
2024/01/06 07:04:57;;;;;;;5.00;2.00;;;5.70;99.90;;;;;;5028282;28;20045;-62
2024/01/06 07:07:24;;;;;;;3.55;1.65;;;5.70;99.90;;;;;;5015311;28;20045;-61
2024/01/06 07:09:50;;;;;;;4.28;1.85;;;5.70;99.90;;;;;;5015642;28;20052;-61
2024/01/06 07:12:17;;;;;;;4.25;1.90;;;5.70;99.90;;;;;;5034176;28;20042;-61
2024/01/06 07:14:44;;;;;;;6.45;2.00;;;5.70;99.90;;;;;;5034068;28;20085;-61
2024/01/06 07:17:11;;;;;;;5.13;1.80;;;5.70;99.90;;;;;;5033125;28;20056;-62
2024/01/06 07:19:38;;;;;;;5.63;2.08;;;5.70;99.90;;;;;;5030003;28;20516;-62
2024/01/06 07:22:05;;;;;;;6.32;2.08;;;5.70;99.90;;;;;;5034281;28;20103;-62
2024/01/06 07:24:33;;;;;;;7.82;2.00;;;5.70;99.90;;;;;;5033995;28;20045;-66
2024/01/06 07:26:59;;;;;;;5.05;2.10;;;5.70;99.90;;;;;;5033780;28;20046;-66
2024/01/06 07:29:26;;;;;;;5.57;2.17;;;5.80;99.90;;;;;;5033949;28;20049;-66
2024/01/06 07:31:53;;;;;;;6.25;3.45;;;5.80;99.90;;;;;;5033608;28;20038;-62
2024/01/06 07:34:20;;;;;;;13.18;7.13;;;5.70;99.90;;;;;;5033624;28;20064;-62
2024/01/06 07:36:47;;;;;;;12.27;7.18;;;5.80;99.90;;;;;;5021488;28;20410;-61
2024/01/06 07:39:14;;;;;;;18.52;8.65;;;5.80;99.90;;;;;;5014829;28;20108;-61
2024/01/06 07:41:40;;;;;;;20.98;11.00;;;5.70;99.90;;;;;;5020146;28;20041;-61
2024/01/06 07:44:07;;;;;;;5.53;3.60;;;5.70;99.90;;;;;;5015834;28;20045;-61
2024/01/06 07:46:36;;;;;;;6.88;2.80;;;5.70;99.90;;;;;;5032861;28;20041;-61
2024/01/06 07:49:04;;;;;;;4.95;2.88;;;5.80;99.90;;;;;;5033578;28;20076;-65
2024/01/06 07:51:31;;;;;;;9.52;3.15;;;5.70;99.90;;;;;;5033406;28;20085;-62
2024/01/06 07:53:58;;;;;;;4.90;2.65;;;5.70;99.90;;;;;;5033192;28;20069;-62
2024/01/06 07:56:25;;;;;;;4.22;2.50;;;5.70;99.90;;;;;;5033223;28;20038;-62
2024/01/06 07:58:52;;;;;;;4.35;2.47;;;5.70;99.90;;;;;;5032170;28;20417;-62
2024/01/06 08:01:21;;;;;;;9.15;3.00;;;5.70;99.90;;;;;;5027313;28;20069;-62
2024/01/06 08:03:48;;;;;;;5.15;2.25;;;5.70;99.90;;;;;;5013947;28;20050;-62
2024/01/06 08:06:15;;;;;;;7.47;2.97;;;5.70;99.90;;;;;;5014263;28;20468;-62
2024/01/06 08:08:42;;;;;;;6.47;2.80;;;5.60;99.90;;;;;;5015175;28;20053;-62
2024/01/06 08:11:09;;;;;;;6.90;2.50;;;5.70;99.90;;;;;;5033024;28;20577;-62
2024/01/06 08:13:36;;;;;;;6.60;2.28;;;5.60;99.90;;;;;;5032851;28;20471;-62
2024/01/06 08:16:03;;;;;;;6.43;2.80;;;5.60;99.90;;;;;;5031611;28;20049;-62
2024/01/06 08:18:29;;;;;;;5.45;2.60;;;5.60;99.90;;;;;;5032223;28;20060;-61
2024/01/06 08:20:56;;;;;;;9.10;2.75;;;5.60;99.90;;;;;;5012572;28;20061;-66
2024/01/06 08:23:23;;;;;;;5.63;2.38;;;5.60;99.90;;;;;;5032199;28;20053;-66
2024/01/06 08:25:50;;;;;;;5.93;2.85;;;5.60;99.90;;;;;;5033005;28;20486;-61
2024/01/06 08:28:18;;;;;;;7.18;2.75;;;5.60;99.90;;;;;;5027280;28;20042;-61
2024/01/06 08:30:45;;;;;;;4.47;2.45;;;5.60;99.90;;;;;;5032733;28;20116;-61
2024/01/06 08:33:12;;;;;;;6.38;3.28;;;5.60;99.90;;;;;;5032527;28;20536;-61
2024/01/06 08:35:40;;;;;;;7.53;2.50;;;5.60;99.90;;;;;;5032485;28;20046;-61
2024/01/06 08:38:07;;;;;;;6.88;2.63;;;5.60;99.90;;;;;;5032703;28;20124;-61
2024/01/06 08:40:33;;;;;;;7.55;2.72;;;5.60;99.90;;;;;;5032920;28;20051;-62
2024/01/06 08:43:00;;;;;;;5.22;2.47;;;5.70;99.90;;;;;;5032395;28;20042;-66
2024/01/06 08:45:27;;;;;;;5.28;2.38;;;5.70;99.90;;;;;;5032463;28;20053;-66
2024/01/06 08:47:54;;;;;;;8.00;2.50;;;5.70;99.90;;;;;;5031879;28;20075;-66
2024/01/06 08:50:21;;;;;;;4.57;2.53;;;5.70;99.90;;;;;;5032391;28;20548;-61
2024/01/06 08:52:48;;;;;;;5.25;2.58;;;5.70;99.90;;;;;;5032740;28;20038;-61
2024/01/06 08:55:16;;;;;;;6.07;2.40;;;5.60;99.90;;;;;;5032834;28;20048;-61
2024/01/06 08:57:43;;;;;;;5.40;1.92;;;5.70;99.90;;;;;;5031001;28;20033;-61
2024/01/06 09:00:10;;;;;;;6.43;2.08;;;5.70;99.90;;;;;;5032299;28;20402;-61
2024/01/06 09:02:38;;;;;;;9.13;2.05;;;5.70;99.90;;;;;;5032451;28;20041;-61
2024/01/06 09:05:05;;;;;;;6.40;2.20;;;5.70;99.90;;;;;;5032119;28;20079;-61
2024/01/06 09:07:31;;;;;;;4.30;1.67;;;5.80;99.90;;;;;;5032276;28;20041;-61
2024/01/06 09:09:59;;;;;;;2.60;1.58;;;5.80;99.90;;;;;;5020894;28;20042;-63
2024/01/06 09:12:26;;;;;;;3.58;1.55;;;5.80;99.90;;;;;;5013759;28;20045;-61
2024/01/06 09:14:53;;;;;;;5.53;1.50;;;5.70;99.90;;;;;;5015693;28;20049;-61
2024/01/06 09:17:19;;;;;;;5.32;1.60;;;5.80;99.90;;;;;;5016035;28;20442;-61
2024/01/06 09:19:47;;;;;;;2.63;1.30;;;5.80;99.90;;;;;;5016151;28;20045;-61
2024/01/06 09:22:14;;;;;;;4.30;1.42;;;5.80;99.90;;;;;;5017289;28;20042;-61
2024/01/06 09:24:41;;;;;;;5.60;1.27;;;5.80;99.90;;;;;;5017109;28;20057;-61
2024/01/06 09:27:08;;;;;;;3.15;1.40;;;5.80;99.90;;;;;;5034509;28;20029;-61
2024/01/06 09:29:35;;;;;;;5.68;1.40;;;5.80;99.90;;;;;;5036267;28;20454;-61
2024/01/06 09:32:02;;;;;;;4.45;1.98;;;5.90;99.90;;;;;;5035847;28;20096;-61
2024/01/06 09:34:29;;;;;;;5.70;1.17;;;5.90;99.90;;;;;;5035809;28;20052;-62
2024/01/06 09:36:56;;;;;;;4.07;1.10;;;5.90;99.90;;;;;;5034081;28;20046;-60
2024/01/06 09:39:23;;;;;;;4.20;1.10;;;5.90;99.90;;;;;;5034560;28;20045;-61
2024/01/06 09:41:50;;;;;;;3.60;0.90;;;5.90;99.90;;;;;;5035520;28;20057;-61
2024/01/06 09:44:18;;;;;;;4.07;1.10;;;5.90;99.90;;;;;;5035615;28;20053;-61
2024/01/06 09:46:44;;;;;;;2.13;1.00;;;5.90;99.90;;;;;;5032948;28;20120;-66
2024/01/06 09:49:13;;;;;;;4.35;1.00;;;5.90;99.90;;;;;;5048877;28;20057;-66
2024/01/06 09:51:40;;;;;;;1.77;0.80;;;6.00;99.90;;;;;;5035408;28;20037;-66
2024/01/06 09:54:07;;;;;;;2.55;0.90;;;5.90;99.90;;;;;;5035516;28;20129;-66
2024/01/06 09:56:34;;;;;;;2.22;1.10;;;6.00;99.90;;;;;;5024726;28;20045;-66
2024/01/06 09:59:01;;;;;;;4.40;1.10;;;6.00;99.90;;;;;;5016633;28;20129;-65
2024/01/06 10:01:28;;;;;;;3.30;0.82;;;6.00;99.90;;;;;;5016377;28;20053;-61
2024/01/06 10:03:54;;;;;;;2.17;1.00;;;6.00;99.90;;;;;;5014994;28;20144;-60
2024/01/06 10:06:21;;;;;;;1.90;0.90;;;6.00;99.90;;;;;;5032739;28;20064;-61
2024/01/06 10:08:48;;;;;;;4.55;1.00;;;6.10;99.90;;;;;;5016571;28;20491;-61
2024/01/06 10:11:15;;;;;;;3.47;0.90;;;6.10;99.90;;;;;;5016184;28;20131;-61
2024/01/06 10:13:42;;;;;;;3.17;1.08;;;6.00;99.90;;;;;;5021876;28;20033;-62
2024/01/06 10:16:09;;;;;;;6.38;1.38;;;6.00;99.90;;;;;;5018149;28;20045;-62
2024/01/06 10:18:36;;;;;;;3.22;1.10;;;6.10;99.90;;;;;;5020942;28;20474;-62
2024/01/06 10:21:03;;;;;;;3.03;1.05;;;6.10;99.90;;;;;;5034721;28;20553;-61
2024/01/06 10:23:31;;;;;;;4.05;1.50;;;6.10;99.90;;;;;;5026898;28;20037;-66
2024/01/06 10:25:58;;;;;;;4.82;1.20;;;6.10;99.90;;;;;;5014892;28;20050;-66
2024/01/06 10:28:28;;;;;;;3.15;1.08;;;6.10;99.90;;;;;;5015765;28;20052;-66
2024/01/06 10:30:55;;;;;;;5.57;1.17;;;6.20;99.90;;;;;;5015940;28;20395;-66
2024/01/06 10:33:22;;;;;;;4.60;1.58;;;6.30;99.90;;;;;;5015460;28;20525;-60
2024/01/06 10:35:49;;;;;;;4.30;1.65;;;6.30;99.90;;;;;;5018412;28;20057;-60
2024/01/06 10:38:16;;;;;;;3.17;1.23;;;6.40;99.90;;;;;;5030424;28;20046;-60
2024/01/06 10:40:43;;;;;;;3.47;1.10;;;6.30;99.90;;;;;;5032292;28;20045;-61
2024/01/06 10:43:10;;;;;;;6.72;1.05;;;6.20;99.90;;;;;;5030538;28;20111;-60
2024/01/06 10:45:36;;;;;;;5.18;1.23;;;6.20;99.90;;;;;;5033152;28;20061;-61
2024/01/06 10:48:03;;;;;;;4.00;1.40;;;6.20;99.90;;;;;;5030022;28;20428;-60
2024/01/06 10:50:30;;;;;;;3.28;1.27;;;6.20;99.90;;;;;;5030512;28;20077;-60
2024/01/06 10:52:57;;;;;;;3.47;1.30;;;6.30;99.90;;;;;;5029964;28;20042;-61
2024/01/06 10:55:24;;;;;;;5.78;1.30;;;6.30;99.90;;;;;;5031124;28;20045;-63
2024/01/06 10:57:51;;;;;;;4.43;2.05;;;6.30;99.90;;;;;;5016086;28;20069;-61
2024/01/06 11:00:18;;;;;;;4.43;1.80;;;6.30;99.90;;;;;;5015167;28;20092;-63
2024/01/06 11:02:46;;;;;;;4.13;1.92;;;6.30;99.90;;;;;;5015983;28;20056;-62
2024/01/06 11:05:13;;;;;;;6.28;2.70;;;6.30;99.90;;;;;;5014885;28;20057;-62
2024/01/06 11:07:41;;;;;;;10.40;2.88;;;6.30;99.90;;;;;;5014618;28;20487;-62
2024/01/06 11:10:08;;;;;;;5.40;2.47;;;6.30;99.90;;;;;;5018776;28;20459;-62
2024/01/06 11:12:35;;;;;;;6.32;2.80;;;6.30;99.90;;;;;;5018253;28;20037;-62
2024/01/06 11:15:03;;;;;;;4.10;2.53;;;6.40;99.90;;;;;;5014703;28;20045;-64
2024/01/06 11:17:30;;;;;;;5.13;3.00;;;6.40;99.90;;;;;;5020964;28;20144;-62
2024/01/06 11:20:03;;;;;;;5.80;2.20;;;6.40;99.90;;;;;;5032694;28;20313;-62
2024/01/06 11:22:39;;;;;;;6.65;2.50;;;6.40;99.90;;;;;;5030005;28;20042;-63
2024/01/06 11:25:07;;;;;;;4.65;2.72;;;6.30;99.90;;;;;;5032367;28;20041;-62
2024/01/06 11:27:35;;;;;;;7.10;2.42;;;6.30;99.90;;;;;;5030678;28;20050;-62
2024/01/06 11:30:05;;;;;;;7.05;3.22;;;6.30;99.90;;;;;;5033401;28;20407;-62
2024/01/06 11:32:38;;;;;;;7.55;3.78;;;6.30;99.90;;;;;;5019444;28;20535;-61
2024/01/06 11:35:05;;;;;;;6.75;3.00;;;6.30;99.90;;;;;;5014119;28;20084;-62
2024/01/06 11:37:32;;;;;;;7.13;3.28;;;6.30;99.90;;;;;;5014093;28;20045;-63
2024/01/06 11:39:59;;;;;;;7.70;4.38;;;6.30;99.90;;;;;;5027573;28;20382;-63
2024/01/06 11:42:26;;;;;;;7.50;3.05;;;6.30;99.90;;;;;;5013386;28;20057;-62
2024/01/06 11:44:54;;;;;;;9.15;2.60;;;6.30;99.90;;;;;;5014594;28;20053;-63
2024/01/06 11:47:23;;;;;;;6.80;2.72;;;6.30;99.90;;;;;;5016038;28;20045;-63
2024/01/06 11:49:50;;;;;;;5.43;2.30;;;6.30;99.90;;;;;;5033830;28;20111;-63
2024/01/06 11:52:17;;;;;;;4.75;2.30;;;6.30;99.90;;;;;;5033558;28;20041;-63
2024/01/06 11:54:44;;;;;;;3.65;1.80;;;6.30;99.90;;;;;;5014270;28;20096;-62
2024/01/06 11:57:10;;;;;;;4.50;2.08;;;6.30;99.90;;;;;;5025932;28;20429;-62
2024/01/06 11:59:37;;;;;;;5.88;2.20;;;6.40;99.90;;;;;;5013228;28;20392;-62
2024/01/06 12:02:04;;;;;;;3.17;1.90;;;6.30;99.90;;;;;;5033248;28;20041;-62
2024/01/06 12:04:31;;;;;;;5.25;1.83;;;6.30;99.90;;;;;;5025403;28;20406;-62
2024/01/06 12:06:58;;;;;;;4.63;1.90;;;6.30;99.90;;;;;;5033574;28;20449;-62
2024/01/06 12:09:26;;;;;;;4.75;2.13;;;6.30;99.90;;;;;;5031979;28;20052;-62
2024/01/06 12:11:53;;;;;;;4.47;2.20;;;6.30;99.90;;;;;;5018760;28;20483;-62
2024/01/06 12:14:20;;;;;;;3.95;2.00;;;6.30;99.90;;;;;;5013253;28;20436;-62
2024/01/06 12:16:46;;;;;;;6.30;2.10;;;6.40;99.90;;;;;;5013892;28;20099;-62
2024/01/06 12:19:13;;;;;;;5.00;2.05;;;6.40;99.90;;;;;;5013884;28;20049;-63
2024/01/06 12:21:41;;;;;;;5.50;2.22;;;6.30;99.90;;;;;;5013180;28;20157;-63
2024/01/06 12:24:08;;;;;;;5.68;2.85;;;6.40;99.90;;;;;;5013686;28;20054;-63
2024/01/06 12:26:34;;;;;;;8.48;3.03;;;6.40;99.90;;;;;;5014140;28;20050;-63
2024/01/06 12:29:01;;;;;;;5.40;2.78;;;6.50;99.90;;;;;;5013729;28;20041;-63
2024/01/06 12:31:28;;;;;;;4.35;2.00;;;6.50;99.90;;;;;;5013830;28;20483;-63
2024/01/06 12:33:55;;;;;;;6.68;1.90;;;6.50;99.90;;;;;;5013838;28;20454;-63
2024/01/06 12:36:21;;;;;;;4.00;1.75;;;6.50;99.90;;;;;;5013697;28;20049;-63
2024/01/06 12:38:55;;;;;;;3.28;1.35;;;6.50;99.90;;;;;;5013750;28;20545;-63
2024/01/06 12:41:22;;;;;;;7.60;1.70;;;6.50;99.90;;;;;;5013834;28;20046;-63
2024/01/06 12:43:49;;;;;;;4.72;1.70;;;6.50;99.90;;;;;;5026507;28;20049;-62
2024/01/06 12:46:16;;;;;;;6.47;2.53;;;6.50;99.90;;;;;;5026348;28;20492;-63
2024/01/06 12:48:43;;;;;;;3.25;1.50;;;6.40;99.90;;;;;;5019571;28;20041;-63
2024/01/06 12:51:10;;;;;;;3.88;1.50;;;6.40;99.90;;;;;;5031203;28;20076;-63
2024/01/06 12:53:36;;;;;;;5.88;1.70;;;6.30;99.90;;;;;;5031434;28;20136;-62